Time;durP1;ratioP1;P1;durP2;ratioP2;P2;SDS_P1;SDS_P2;PMS_P1;PMS_P2;Temp;Humidity;BMP_temperature;BMP_pressure;BME280_temperature;BME280_humidity;BME280_pressure;Samples;Min_cycle;Max_cycle;Signal;HPM_P1;HPM_P2
2022/09/05 00:03:15;;;;;;;2.58;2.38;;;13.50;99.90;;;;;;4859489;29;20044;-80
2022/09/05 00:06:00;;;;;;;3.03;2.55;;;13.50;99.90;;;;;;4809523;29;20054;-80
2022/09/05 00:08:49;;;;;;;2.13;1.95;;;13.50;99.90;;;;;;4824051;29;20046;-80
2022/09/05 00:11:25;;;;;;;3.63;3.30;;;13.40;99.90;;;;;;4843282;29;20065;-80
2022/09/05 00:14:35;;;;;;;3.17;2.35;;;13.40;99.90;;;;;;4848178;29;20053;-80
2022/09/05 00:17:36;;;;;;;2.33;2.22;;;13.40;99.90;;;;;;4849567;29;20049;-80
2022/09/05 00:21:04;;;;;;;2.47;2.17;;;13.40;99.90;;;;;;4862939;29;20057;-80
2022/09/05 00:24:00;;;;;;;2.10;1.95;;;13.40;99.90;;;;;;4862908;29;20054;-80
2022/09/05 00:27:16;;;;;;;2.08;1.98;;;13.30;99.90;;;;;;4863685;29;20496;-80
2022/09/05 00:30:04;;;;;;;3.60;2.33;;;13.20;99.90;;;;;;4862727;29;20053;-80
2022/09/05 00:33:14;;;;;;;2.35;2.00;;;13.00;99.90;;;;;;4862933;29;20045;-80
2022/09/05 00:36:04;;;;;;;2.85;2.50;;;13.00;99.90;;;;;;4831578;29;20524;-80
2022/09/05 00:38:32;;;;;;;2.50;2.30;;;13.00;99.90;;;;;;4861651;29;20054;-80
2022/09/05 00:41:11;;;;;;;2.80;2.53;;;13.00;99.90;;;;;;4863099;29;20046;-80
2022/09/05 00:43:47;;;;;;;3.30;2.50;;;13.00;99.90;;;;;;4846141;29;20045;-80
2022/09/05 00:46:24;;;;;;;7.28;3.03;;;13.00;99.90;;;;;;4863315;29;20472;-80
2022/09/05 00:49:20;;;;;;;2.88;2.67;;;13.00;99.90;;;;;;4830870;29;20041;-80
2022/09/05 00:52:00;;;;;;;3.75;3.38;;;13.10;99.90;;;;;;4868854;29;20053;-80
2022/09/05 00:54:31;;;;;;;3.22;2.95;;;13.10;99.90;;;;;;4881484;29;20056;-80
2022/09/05 00:57:49;;;;;;;4.07;2.65;;;13.10;99.90;;;;;;4881286;29;20045;-80
2022/09/05 01:00:31;;;;;;;3.70;2.67;;;13.10;99.90;;;;;;4864267;29;20052;-80
2022/09/05 01:03:18;;;;;;;3.17;2.90;;;13.00;99.90;;;;;;4879176;29;20053;-80
2022/09/05 01:06:28;;;;;;;2.97;2.67;;;13.00;99.90;;;;;;4879871;29;20491;-80
2022/09/05 01:09:22;;;;;;;5.38;3.55;;;13.00;99.90;;;;;;4880499;29;20053;-80
2022/09/05 01:12:32;;;;;;;2.90;2.60;;;13.10;99.90;;;;;;4880031;29;20591;-80
2022/09/05 01:15:07;;;;;;;4.80;2.30;;;13.00;99.90;;;;;;4864827;29;20052;-80
2022/09/05 01:17:59;;;;;;;3.03;2.65;;;13.00;99.90;;;;;;4880552;29;20053;-80
2022/09/05 01:21:00;;;;;;;3.20;2.95;;;13.00;99.90;;;;;;4878975;29;20053;-80
2022/09/05 01:24:00;;;;;;;3.42;3.13;;;13.10;99.90;;;;;;4879386;29;20041;-81
2022/09/05 01:26:58;;;;;;;5.63;3.80;;;13.10;99.90;;;;;;4841482;29;20049;-81
2022/09/05 01:29:29;;;;;;;3.40;3.10;;;13.00;99.90;;;;;;4880268;29;20075;-81
2022/09/05 01:32:14;;;;;;;5.18;3.00;;;13.00;99.90;;;;;;4845576;29;20049;-81
2022/09/05 01:34:53;;;;;;;2.70;2.50;;;13.10;99.90;;;;;;4845833;29;20064;-81
2022/09/05 01:37:46;;;;;;;3.83;3.50;;;13.10;99.90;;;;;;4844981;29;20066;-81
2022/09/05 01:40:14;;;;;;;3.97;3.60;;;13.00;99.90;;;;;;4852366;29;20049;-81
2022/09/05 01:43:17;;;;;;;4.18;3.47;;;13.00;99.90;;;;;;4861834;29;20061;-81
2022/09/05 01:46:16;;;;;;;3.35;3.10;;;12.90;99.90;;;;;;4861311;29;20045;-81
2022/09/05 01:48:56;;;;;;;3.50;3.20;;;13.00;99.90;;;;;;4861333;29;20056;-81
2022/09/05 01:52:05;;;;;;;6.10;3.43;;;13.00;99.90;;;;;;4862183;29;20053;-81
2022/09/05 01:54:57;;;;;;;3.65;3.35;;;13.00;99.90;;;;;;4859500;29;20491;-81
2022/09/05 01:57:44;;;;;;;3.90;3.45;;;13.00;99.90;;;;;;4830086;29;20064;-81
2022/09/05 02:00:17;;;;;;;17.70;6.13;;;13.00;99.90;;;;;;4844718;29;20046;-81
2022/09/05 02:03:22;;;;;;;4.25;2.63;;;12.80;99.90;;;;;;4845524;29;20052;-81
2022/09/05 02:05:55;;;;;;;5.18;4.30;;;12.60;99.90;;;;;;4861365;29;20504;-81
2022/09/05 02:08:45;;;;;;;3.88;3.58;;;12.60;99.90;;;;;;4866215;29;20414;-81
2022/09/05 02:11:13;;;;;;;4.90;3.45;;;12.70;99.90;;;;;;4863758;29;20230;-81
2022/09/05 02:14:42;;;;;;;2.58;2.38;;;12.80;99.90;;;;;;4862639;29;20391;-81
2022/09/05 02:17:30;;;;;;;5.07;3.05;;;12.80;99.90;;;;;;4805062;29;20049;-81
2022/09/05 02:20:20;;;;;;;5.75;2.90;;;12.60;99.90;;;;;;4879448;29;20037;-81
2022/09/05 02:23:14;;;;;;;3.08;2.60;;;12.40;99.90;;;;;;4879604;29;20127;-81
2022/09/05 02:26:16;;;;;;;3.88;3.53;;;12.40;99.90;;;;;;4879369;29;20056;-81
2022/09/05 02:29:13;;;;;;;3.50;3.20;;;12.40;99.90;;;;;;4878010;29;20060;-81
2022/09/05 02:32:24;;;;;;;4.03;3.10;;;12.40;99.90;;;;;;4871841;29;20059;-81
2022/09/05 02:35:32;;;;;;;4.35;3.10;;;12.50;99.90;;;;;;4879895;29;20045;-81
2022/09/05 02:38:07;;;;;;;4.07;3.65;;;12.60;99.90;;;;;;4787674;29;20062;-81
2022/09/05 02:40:58;;;;;;;3.35;3.05;;;12.50;99.90;;;;;;4862795;29;20049;-81
2022/09/05 02:44:21;;;;;;;3.95;3.58;;;12.50;99.90;;;;;;4879271;29;20045;-81
2022/09/05 02:47:32;;;;;;;8.13;3.28;;;12.60;99.90;;;;;;4879651;29;20049;-81
2022/09/05 02:50:06;;;;;;;3.67;3.25;;;12.60;99.90;;;;;;4877735;29;20049;-81
2022/09/05 02:52:55;;;;;;;4.07;3.67;;;12.60;99.90;;;;;;4878295;29;20057;-80
2022/09/05 02:56:07;;;;;;;3.75;3.03;;;12.60;99.90;;;;;;4865180;29;20045;-80
2022/09/05 02:59:21;;;;;;;5.38;3.45;;;12.50;99.90;;;;;;4878100;29;20049;-80
2022/09/05 03:02:15;;;;;;;5.10;3.78;;;12.50;99.90;;;;;;4861971;29;20044;-80
2022/09/05 03:05:04;;;;;;;4.45;3.17;;;12.60;99.90;;;;;;4877823;29;20053;-80
2022/09/05 03:07:53;;;;;;;5.28;3.72;;;12.70;99.90;;;;;;4878533;29;20502;-80
2022/09/05 03:10:27;;;;;;;4.28;3.88;;;12.70;99.90;;;;;;4862246;29;20061;-80
2022/09/05 03:13:44;;;;;;;9.30;4.07;;;12.70;99.90;;;;;;4865115;29;20041;-80
2022/09/05 03:16:26;;;;;;;3.60;3.05;;;12.70;99.90;;;;;;4877842;29;20045;-80
2022/09/05 03:19:15;;;;;;;4.25;3.58;;;12.70;99.90;;;;;;4862513;29;20060;-80
2022/09/05 03:22:14;;;;;;;3.72;3.42;;;12.70;99.90;;;;;;4862214;29;20064;-80
2022/09/05 03:24:56;;;;;;;3.85;3.25;;;12.60;99.90;;;;;;4878572;29;20052;-80
2022/09/05 03:27:43;;;;;;;5.63;3.05;;;12.60;99.90;;;;;;4865037;29;20072;-80
2022/09/05 03:30:18;;;;;;;3.58;3.28;;;12.60;99.90;;;;;;4864902;29;20049;-80
2022/09/05 03:33:04;;;;;;;2.58;2.38;;;12.60;99.90;;;;;;4850433;29;20046;-80
2022/09/05 03:35:35;;;;;;;9.90;3.35;;;12.40;99.90;;;;;;4882594;29;20037;-80
2022/09/05 03:38:27;;;;;;;2.90;2.65;;;12.30;99.90;;;;;;4850216;29;20057;-80
2022/09/05 03:41:16;;;;;;;13.52;4.68;;;12.30;99.90;;;;;;4847536;29;20502;-81
2022/09/05 03:44:10;;;;;;;4.10;3.63;;;12.30;99.90;;;;;;4879008;29;20053;-80
2022/09/05 03:47:11;;;;;;;5.60;3.63;;;12.30;99.90;;;;;;4879782;29;20779;-80
2022/09/05 03:49:42;;;;;;;;;;;12.40;99.90;;;;;;4846179;29;20410;-80
2022/09/05 03:52:58;;;;;;;2.80;2.60;;;12.50;99.90;;;;;;4877503;29;19933;-80
2022/09/05 03:56:04;;;;;;;3.03;2.85;;;12.40;99.90;;;;;;4830902;29;20060;-80
2022/09/05 03:59:40;;;;;;;8.75;2.58;;;12.10;99.90;;;;;;4860107;29;20053;-81
2022/09/05 04:02:12;;;;;;;2.63;2.50;;;12.00;99.90;;;;;;4827237;29;20056;-80
2022/09/05 04:05:24;;;;;;;6.63;3.03;;;11.90;99.90;;;;;;4846589;29;20052;-80
2022/09/05 04:08:21;;;;;;;;;;;11.90;99.90;;;;;;4841689;29;20053;-80
2022/09/05 04:11:38;;;;;;;5.60;3.45;;;11.90;99.90;;;;;;4860653;29;19931;-81
2022/09/05 04:14:29;;;;;;;3.35;3.05;;;12.00;99.90;;;;;;4857473;29;20218;-80
2022/09/05 04:17:16;;;;;;;10.15;3.60;;;12.00;99.90;;;;;;4825033;29;20065;-80
2022/09/05 04:19:54;;;;;;;3.72;3.42;;;12.00;99.90;;;;;;4842796;29;20060;-80
2022/09/05 04:22:43;;;;;;;4.93;3.20;;;12.00;99.90;;;;;;4842843;29;20064;-80
2022/09/05 04:25:25;;;;;;;3.30;3.00;;;12.00;99.90;;;;;;4827644;29;20610;-80
2022/09/05 04:28:22;;;;;;;4.15;3.33;;;12.10;99.90;;;;;;4858614;29;20045;-80
2022/09/05 04:31:27;;;;;;;9.98;4.03;;;12.20;99.90;;;;;;4858901;29;20061;-80
2022/09/05 04:34:03;;;;;;;9.32;4.07;;;12.20;99.90;;;;;;4859347;29;20053;-80
2022/09/05 04:36:37;;;;;;;3.42;3.05;;;12.20;99.90;;;;;;4827756;29;20049;-80
2022/09/05 04:39:16;;;;;;;3.25;2.95;;;12.20;99.90;;;;;;4857697;29;20084;-80
2022/09/05 04:41:53;;;;;;;2.58;2.38;;;12.10;99.90;;;;;;4859459;29;20053;-80
2022/09/05 04:44:34;;;;;;;2.33;2.13;;;12.10;99.90;;;;;;4857976;29;20057;-80
2022/09/05 04:47:24;;;;;;;7.77;1.77;;;12.00;99.90;;;;;;4859892;29;20404;-80
2022/09/05 04:50:04;;;;;;;3.55;2.72;;;11.80;99.90;;;;;;4859033;29;20041;-80
2022/09/05 04:52:48;;;;;;;2.33;2.13;;;11.80;99.90;;;;;;4837652;29;20056;-81
2022/09/05 04:55:25;;;;;;;1.73;1.63;;;11.90;99.90;;;;;;4843450;29;20061;-80
2022/09/05 04:58:23;;;;;;;1.50;1.40;;;11.80;99.90;;;;;;4859067;29;20050;-80
2022/09/05 05:01:21;;;;;;;1.80;1.50;;;11.80;99.90;;;;;;4859167;29;20073;-80
2022/09/05 05:04:16;;;;;;;1.60;1.50;;;11.70;99.90;;;;;;4858711;29;20053;-80
2022/09/05 05:07:23;;;;;;;2.78;1.98;;;11.70;99.90;;;;;;4859629;29;20519;-80
2022/09/05 05:09:58;;;;;;;2.47;2.28;;;11.60;99.90;;;;;;4858178;29;20049;-80
2022/09/05 05:13:05;;;;;;;2.45;2.25;;;11.60;99.90;;;;;;4829588;29;20045;-80
2022/09/05 05:16:31;;;;;;;2.47;2.28;;;11.60;99.90;;;;;;4829704;29;20419;-80
2022/09/05 05:19:30;;;;;;;2.75;2.55;;;11.60;99.90;;;;;;4837658;29;20068;-80
2022/09/05 05:22:02;;;;;;;1.77;1.67;;;11.60;99.90;;;;;;4841880;29;20065;-80
2022/09/05 05:24:40;;;;;;;1.88;1.77;;;11.60;99.90;;;;;;4840578;29;20053;-80
2022/09/05 05:27:37;;;;;;;2.75;2.55;;;11.70;99.90;;;;;;4827623;29;20127;-80
2022/09/05 05:30:09;;;;;;;1.80;1.70;;;11.70;99.90;;;;;;4857075;29;20448;-80
2022/09/05 05:32:44;;;;;;;2.00;1.90;;;11.80;99.90;;;;;;4826357;29;20061;-80
2022/09/05 05:35:18;;;;;;;1.95;1.77;;;11.80;99.90;;;;;;4842349;29;20076;-80
2022/09/05 05:38:10;;;;;;;2.20;2.10;;;11.80;99.90;;;;;;4855533;29;20069;-80
2022/09/05 05:40:47;;;;;;;3.83;2.30;;;11.80;99.90;;;;;;4858351;29;20050;-80
2022/09/05 05:43:36;;;;;;;3.10;2.80;;;11.90;99.90;;;;;;4857791;29;20403;-80
2022/09/05 05:46:11;;;;;;;2.90;2.70;;;12.00;99.90;;;;;;4810862;29;20045;-80
2022/09/05 05:48:40;;;;;;;3.40;3.00;;;12.10;99.90;;;;;;4840681;29;20057;-80
2022/09/05 05:51:43;;;;;;;3.20;2.92;;;12.30;99.90;;;;;;4857442;29;20052;-80
2022/09/05 05:54:32;;;;;;;4.00;3.38;;;12.40;99.90;;;;;;4880189;29;20048;-80
2022/09/05 05:57:26;;;;;;;4.05;3.65;;;12.60;99.90;;;;;;4863328;29;20041;-80
2022/09/05 05:59:59;;;;;;;4.10;3.17;;;12.70;99.90;;;;;;4847575;29;20048;-80
2022/09/05 06:02:46;;;;;;;4.82;3.35;;;12.90;99.90;;;;;;4878782;29;20229;-81
2022/09/05 06:05:58;;;;;;;6.65;3.67;;;13.10;99.90;;;;;;4878357;29;20051;-80
2022/09/05 06:08:51;;;;;;;10.45;3.53;;;13.40;99.90;;;;;;4868977;29;20443;-80
2022/09/05 06:12:17;;;;;;;4.28;3.42;;;13.50;99.90;;;;;;4876250;29;20049;-80
2022/09/05 06:15:28;;;;;;;4.07;3.30;;;13.80;99.90;;;;;;4876982;29;20056;-80
2022/09/05 06:18:09;;;;;;;4.25;2.95;;;14.20;99.90;;;;;;4858777;29;20049;-80
2022/09/05 06:20:54;;;;;;;3.87;3.37;;;14.80;99.90;;;;;;4859495;29;20439;-80
2022/09/05 06:23:44;;;;;;;3.58;3.28;;;15.00;99.90;;;;;;4860718;29;20395;-80
2022/09/05 06:26:34;;;;;;;8.70;4.97;;;15.40;99.90;;;;;;4875555;29;20057;-80
2022/09/05 06:29:07;;;;;;;4.57;4.18;;;15.90;99.90;;;;;;4874108;29;20061;-80
2022/09/05 06:31:40;;;;;;;3.63;3.33;;;16.30;99.90;;;;;;4874699;29;20053;-80
2022/09/05 06:34:36;;;;;;;3.58;3.22;;;16.50;99.90;;;;;;4874818;29;20053;-80
2022/09/05 06:37:32;;;;;;;4.20;3.67;;;16.60;99.90;;;;;;4843936;29;20550;-81
2022/09/05 06:40:17;;;;;;;5.30;3.28;;;16.50;99.90;;;;;;4870258;29;20045;-81
2022/09/05 06:43:02;;;;;;;5.28;3.40;;;16.20;99.90;;;;;;4876109;29;20061;-81
2022/09/05 06:46:07;;;;;;;4.03;3.63;;;16.10;99.90;;;;;;4876075;29;20053;-81
2022/09/05 06:48:44;;;;;;;4.38;3.67;;;16.30;99.90;;;;;;4875065;29;20539;-81
2022/09/05 06:51:41;;;;;;;3.80;3.58;;;16.40;99.90;;;;;;4875462;29;20464;-82
2022/09/05 06:54:18;;;;;;;4.10;2.83;;;16.50;99.90;;;;;;4885642;29;20045;-82
2022/09/05 06:57:10;;;;;;;3.92;3.45;;;16.60;99.90;;;;;;4894589;29;20045;-81
2022/09/05 06:59:49;;;;;;;4.28;2.65;;;16.80;99.90;;;;;;4893642;29;20463;-80
2022/09/05 07:02:35;;;;;;;3.47;2.83;;;16.90;99.90;;;;;;4892643;29;20055;-80
2022/09/05 07:05:25;;;;;;;5.35;2.97;;;17.00;99.90;;;;;;4878907;29;20056;-79
2022/09/05 07:08:16;;;;;;;2.88;2.65;;;17.10;99.90;;;;;;4892291;29;20422;-79
2022/09/05 07:11:09;;;;;;;3.72;3.42;;;17.00;99.90;;;;;;4894594;29;20063;-79
2022/09/05 07:13:54;;;;;;;4.75;3.83;;;17.10;99.90;;;;;;4894056;29;20483;-79
2022/09/05 07:16:49;;;;;;;3.63;3.25;;;17.10;99.90;;;;;;4895036;29;20044;-86
2022/09/05 07:19:23;;;;;;;4.10;2.97;;;17.00;99.90;;;;;;4839049;29;20061;-85
2022/09/05 07:22:12;;;;;;;4.82;4.47;;;16.90;99.90;;;;;;4839851;29;20057;-84
2022/09/05 07:25:07;;;;;;;3.67;3.40;;;17.10;99.90;;;;;;4839709;29;20053;-85
2022/09/05 07:27:59;;;;;;;2.80;2.53;;;17.20;99.90;;;;;;4856671;29;20049;-85
2022/09/05 07:30:56;;;;;;;6.20;3.72;;;17.30;99.90;;;;;;4866525;29;20057;-84
2022/09/05 07:33:28;;;;;;;3.05;2.50;;;17.50;99.90;;;;;;4857163;29;20068;-84
2022/09/05 07:36:07;;;;;;;2.92;2.72;;;17.60;99.90;;;;;;4874714;29;20403;-84
2022/09/05 07:38:38;;;;;;;5.38;2.50;;;17.70;99.90;;;;;;4826078;29;20495;-84
2022/09/05 07:41:29;;;;;;;3.35;3.03;;;17.90;99.90;;;;;;4873794;29;20053;-84
2022/09/05 07:44:28;;;;;;;3.78;3.47;;;18.20;99.90;;;;;;4857825;29;20406;-84
2022/09/05 07:47:13;;;;;;;5.30;3.75;;;18.40;99.90;;;;;;4837336;29;20506;-84
2022/09/05 07:49:44;;;;;;;4.88;4.47;;;18.50;99.90;;;;;;4841825;29;20041;-84
2022/09/05 07:52:39;;;;;;;3.30;2.93;;;18.40;99.90;;;;;;4843462;29;20041;-84
2022/09/05 07:55:30;;;;;;;3.75;3.13;;;18.50;99.90;;;;;;4855426;29;20411;-85
2022/09/05 07:58:21;;;;;;;14.40;6.40;;;18.50;99.90;;;;;;4842577;29;20503;-85
2022/09/05 08:00:55;;;;;;;4.47;3.72;;;18.20;99.90;;;;;;4855041;29;20045;-84
2022/09/05 08:03:28;;;;;;;3.95;3.65;;;18.20;99.90;;;;;;4856319;29;20057;-84
2022/09/05 08:06:00;;;;;;;4.60;4.15;;;18.20;99.90;;;;;;4855404;29;20061;-85
2022/09/05 08:08:42;;;;;;;4.88;3.25;;;18.30;99.90;;;;;;4860294;29;20049;-85
2022/09/05 08:11:19;;;;;;;6.18;3.65;;;18.30;99.90;;;;;;4859087;29;20057;-84
2022/09/05 08:13:58;;;;;;;2.97;2.53;;;18.50;99.90;;;;;;4877674;29;20056;-83
2022/09/05 08:16:45;;;;;;;3.28;2.80;;;18.60;99.90;;;;;;4878166;29;20056;-85
2022/09/05 08:19:53;;;;;;;3.65;3.13;;;18.80;99.90;;;;;;4876738;29;20431;-84
2022/09/05 08:22:44;;;;;;;4.90;2.70;;;18.80;99.90;;;;;;4874498;29;20254;-85
2022/09/05 08:25:47;;;;;;;3.15;2.85;;;18.90;99.90;;;;;;4844350;29;20538;-82
2022/09/05 08:28:54;;;;;;;3.53;3.17;;;18.90;99.90;;;;;;4862605;29;20053;-87
2022/09/05 08:31:34;;;;;;;3.78;3.33;;;18.90;99.90;;;;;;4845240;29;20064;-87
2022/09/05 08:34:14;;;;;;;5.20;3.10;;;19.00;99.90;;;;;;4826365;29;20049;-84
2022/09/05 08:36:46;;;;;;;7.50;3.33;;;19.10;99.90;;;;;;4842664;29;20061;-84
2022/09/05 08:42:55;;;;;;;3.33;3.03;;;19.40;99.90;;;;;;5579356;23;20044;-86
2022/09/05 08:45:55;;;;;;;3.97;3.00;;;19.50;99.90;;;;;;4879866;29;20293;-84
2022/09/05 08:49:08;;;;;;;3.70;3.40;;;19.50;99.90;;;;;;4863143;29;20053;-86
2022/09/05 08:52:01;;;;;;;3.55;2.92;;;19.60;99.90;;;;;;4873479;29;20061;-86
2022/09/05 08:54:35;;;;;;;3.45;3.13;;;19.60;99.90;;;;;;4905640;29;20052;-86
2022/09/05 08:57:32;;;;;;;3.28;3.03;;;19.70;99.90;;;;;;4897973;29;20040;-86
2022/09/05 09:00:07;;;;;;;4.45;2.85;;;19.80;99.90;;;;;;4896879;29;20037;-87
2022/09/05 09:03:18;;;;;;;7.93;4.13;;;19.80;99.90;;;;;;4897948;29;20052;-86
2022/09/05 09:05:54;;;;;;;2.75;2.55;;;19.90;99.90;;;;;;4897790;29;20071;-86
2022/09/05 09:09:09;;;;;;;3.40;3.10;;;19.80;99.90;;;;;;4896110;29;20056;-86
2022/09/05 09:11:46;;;;;;;5.28;3.28;;;19.90;99.90;;;;;;4897559;29;20569;-85
2022/09/05 09:14:56;;;;;;;3.45;3.15;;;19.80;99.90;;;;;;4898609;29;20060;-86
2022/09/05 09:17:48;;;;;;;3.17;2.50;;;20.00;99.90;;;;;;4895239;29;20071;-86
2022/09/05 09:20:32;;;;;;;3.80;3.45;;;20.10;99.90;;;;;;4896256;29;20045;-86
2022/09/05 09:23:02;;;;;;;4.07;3.72;;;20.20;99.90;;;;;;4896051;29;20394;-86
2022/09/05 09:25:48;;;;;;;3.03;2.83;;;20.30;99.90;;;;;;4896731;29;20048;-86
2022/09/05 09:28:47;;;;;;;3.53;3.22;;;20.30;99.90;;;;;;4881915;29;20397;-86
2022/09/05 09:32:07;;;;;;;3.13;2.83;;;20.30;99.90;;;;;;4849591;29;20061;-88
2022/09/05 09:35:04;;;;;;;3.55;2.83;;;20.30;99.90;;;;;;4803326;29;20491;-87
2022/09/05 09:38:07;;;;;;;2.50;2.30;;;20.50;99.90;;;;;;4843387;29;20064;-86
2022/09/05 09:40:49;;;;;;;3.40;2.47;;;20.70;99.90;;;;;;4828956;29;20053;-88
2022/09/05 09:43:49;;;;;;;4.20;2.80;;;20.70;99.90;;;;;;4876917;29;20061;-87
2022/09/05 09:46:45;;;;;;;4.15;3.28;;;20.80;99.90;;;;;;4829353;29;20056;-86
2022/09/05 09:49:26;;;;;;;3.83;3.33;;;20.80;99.90;;;;;;4828213;29;20119;-86
2022/09/05 09:51:56;;;;;;;;;;;20.80;99.90;;;;;;4859202;29;20045;-85
2022/09/05 09:54:41;;;;;;;2.58;2.38;;;20.90;99.90;;;;;;4887745;29;19927;-86
2022/09/05 09:57:48;;;;;;;2.83;2.63;;;20.80;99.90;;;;;;4913221;29;20048;-85
2022/09/05 10:00:21;;;;;;;9.73;3.17;;;20.80;99.90;;;;;;4866360;29;20051;-86
2022/09/05 10:03:24;;;;;;;7.63;1.95;;;21.00;99.90;;;;;;4914061;29;20052;-83
2022/09/05 10:06:41;;;;;;;2.70;2.50;;;21.10;99.90;;;;;;4865279;29;20079;-85
2022/09/05 10:10:01;;;;;;;6.53;2.83;;;21.30;99.90;;;;;;4850760;29;20060;-86
2022/09/05 10:13:24;;;;;;;4.35;2.53;;;21.40;99.90;;;;;;4822402;29;20048;-85
2022/09/05 10:16:15;;;;;;;2.15;2.05;;;21.30;99.90;;;;;;4769821;29;20403;-86
2022/09/05 10:19:07;;;;;;;2.60;2.38;;;21.40;99.90;;;;;;4858962;29;20049;-86
2022/09/05 10:21:50;;;;;;;2.08;1.88;;;21.50;99.90;;;;;;4849507;29;20511;-85
2022/09/05 10:24:47;;;;;;;3.35;1.92;;;21.40;99.90;;;;;;4857442;29;20045;-86
2022/09/05 10:27:26;;;;;;;2.92;2.67;;;21.50;99.90;;;;;;4844126;29;20131;-85
2022/09/05 10:30:22;;;;;;;4.75;3.90;;;21.60;99.90;;;;;;4858900;29;20049;-86
2022/09/05 10:33:35;;;;;;;2.03;1.92;;;21.90;99.90;;;;;;4858095;29;20045;-86
2022/09/05 10:36:30;;;;;;;2.47;2.28;;;21.90;99.90;;;;;;4842614;29;20041;-85
2022/09/05 10:39:17;;;;;;;2.47;2.28;;;21.70;99.90;;;;;;4856989;29;20053;-86
2022/09/05 10:41:56;;;;;;;2.38;1.90;;;21.80;99.90;;;;;;4858419;29;20049;-86
2022/09/05 10:44:40;;;;;;;3.42;2.72;;;22.00;99.90;;;;;;4843775;29;20053;-85
2022/09/05 10:47:23;;;;;;;2.10;1.95;;;22.10;99.90;;;;;;4875825;29;20053;-86
2022/09/05 10:50:20;;;;;;;2.38;2.13;;;22.20;99.90;;;;;;4843188;29;20044;-86
2022/09/05 10:52:58;;;;;;;3.03;2.83;;;22.30;99.90;;;;;;4860012;29;20056;-85
2022/09/05 10:55:44;;;;;;;3.08;1.98;;;22.30;99.90;;;;;;4895714;29;20052;-86
2022/09/05 10:58:51;;;;;;;2.35;1.88;;;22.30;99.90;;;;;;4879227;29;20056;-86
2022/09/05 11:02:05;;;;;;;2.13;1.90;;;22.30;99.90;;;;;;4882730;29;20067;-85
2022/09/05 11:05:18;;;;;;;2.30;2.05;;;22.30;99.90;;;;;;4857680;29;20056;-86
2022/09/05 11:07:58;;;;;;;2.50;1.88;;;22.30;99.90;;;;;;4894063;29;20051;-85
2022/09/05 11:10:33;;;;;;;2.47;1.83;;;22.40;99.90;;;;;;4881160;29;20036;-86
2022/09/05 11:13:33;;;;;;;1.38;1.27;;;22.60;99.90;;;;;;4879673;29;20051;-85
2022/09/05 11:16:16;;;;;;;2.33;2.13;;;22.60;99.90;;;;;;4893952;29;20059;-86
2022/09/05 11:18:54;;;;;;;1.60;1.50;;;22.60;99.90;;;;;;4879598;29;20067;-87
2022/09/05 11:21:38;;;;;;;3.28;1.70;;;22.60;99.90;;;;;;4886262;29;20044;-85
2022/09/05 11:24:35;;;;;;;1.83;1.73;;;22.70;99.90;;;;;;4878193;29;20430;-85
2022/09/05 11:27:09;;;;;;;1.67;1.58;;;22.70;99.90;;;;;;4895865;29;20063;-86
2022/09/05 11:29:59;;;;;;;6.18;3.13;;;22.80;99.90;;;;;;4890416;29;20041;-87
2022/09/05 11:32:53;;;;;;;4.47;2.42;;;22.90;99.90;;;;;;4874280;29;20053;-85
2022/09/05 11:36:04;;;;;;;3.97;2.22;;;23.00;99.90;;;;;;4874801;29;20404;-86
2022/09/05 11:39:31;;;;;;;2.17;1.98;;;22.90;99.90;;;;;;4840876;29;20053;-85
2022/09/05 11:43:02;;;;;;;1.95;1.60;;;22.90;99.90;;;;;;4829561;29;20077;-85
2022/09/05 11:45:48;;;;;;;2.70;2.47;;;22.90;99.90;;;;;;4829376;29;20060;-85
2022/09/05 11:48:38;;;;;;;2.08;1.63;;;23.10;99.90;;;;;;4875898;29;20041;-84
2022/09/05 11:51:57;;;;;;;2.67;2.47;;;23.10;99.90;;;;;;4846869;29;20064;-83
2022/09/05 11:54:49;;;;;;;3.40;2.60;;;23.00;99.90;;;;;;4891414;29;20048;-84
2022/09/05 11:57:37;;;;;;;2.83;2.10;;;22.90;99.90;;;;;;4899037;29;20048;-84
2022/09/05 12:00:19;;;;;;;4.90;2.42;;;23.10;99.90;;;;;;4915211;29;20036;-85
2022/09/05 12:03:21;;;;;;;3.03;2.17;;;23.30;99.90;;;;;;4899064;29;20048;-86
2022/09/05 12:06:30;;;;;;;2.05;1.92;;;23.40;99.90;;;;;;4866956;29;20068;-85
2022/09/05 12:09:21;;;;;;;1.50;1.40;;;23.60;99.90;;;;;;4881853;29;20053;-86
2022/09/05 12:12:21;;;;;;;4.72;2.15;;;23.50;99.90;;;;;;4845977;29;20519;-85
2022/09/05 12:15:32;;;;;;;1.92;1.83;;;23.40;99.90;;;;;;4833675;29;20056;-85
2022/09/05 12:18:19;;;;;;;2.00;1.80;;;23.30;99.90;;;;;;4859229;29;20075;-81
2022/09/05 12:21:31;;;;;;;1.73;1.63;;;23.30;99.90;;;;;;4862431;29;20041;-82
2022/09/05 12:24:16;;;;;;;1.95;1.70;;;23.30;99.90;;;;;;4860145;29;20392;-82
2022/09/05 12:27:10;;;;;;;2.63;2.42;;;23.20;99.90;;;;;;4849483;29;20400;-82
2022/09/05 12:30:02;;;;;;;3.08;1.88;;;23.10;99.90;;;;;;4860876;29;20045;-81
2022/09/05 12:32:32;;;;;;;2.33;2.13;;;23.10;99.90;;;;;;4877703;29;20439;-81
2022/09/05 12:35:41;;;;;;;2.75;2.10;;;23.40;99.90;;;;;;4877320;29;20049;-81
2022/09/05 12:38:47;;;;;;;2.40;1.67;;;23.40;99.90;;;;;;4845887;29;20053;-82
2022/09/05 12:42:01;;;;;;;2.25;1.92;;;23.50;99.90;;;;;;4876686;29;20511;-81
2022/09/05 12:45:10;;;;;;;3.40;1.52;;;23.60;99.90;;;;;;4833108;29;20526;-82
2022/09/05 12:48:05;;;;;;;5.88;2.05;;;23.80;99.90;;;;;;4845632;29;20079;-82
2022/09/05 12:51:08;;;;;;;3.03;2.83;;;23.80;99.90;;;;;;4861880;29;20049;-82
2022/09/05 12:53:48;;;;;;;1.90;1.80;;;23.70;99.90;;;;;;4853480;29;20063;-81
2022/09/05 12:56:40;;;;;;;2.50;2.28;;;23.80;99.90;;;;;;4882579;29;20044;-82
2022/09/05 12:59:29;;;;;;;1.80;1.58;;;23.90;99.90;;;;;;4913813;29;20060;-82
2022/09/05 13:02:22;;;;;;;2.50;2.30;;;23.80;99.90;;;;;;4883261;29;20516;-82
2022/09/05 13:05:16;;;;;;;2.30;2.10;;;23.90;99.90;;;;;;4898332;29;20040;-81
2022/09/05 13:07:55;;;;;;;2.85;2.50;;;24.10;99.90;;;;;;4896981;29;20052;-82
2022/09/05 13:10:40;;;;;;;2.42;2.22;;;24.30;99.90;;;;;;4898507;29;20064;-81
2022/09/05 13:13:39;;;;;;;2.38;2.17;;;24.30;99.90;;;;;;4885165;29;20037;-82
2022/09/05 13:16:30;;;;;;;2.35;2.15;;;24.30;99.90;;;;;;4885103;29;20099;-82
2022/09/05 13:19:06;;;;;;;2.33;2.13;;;24.40;99.90;;;;;;4897841;29;20063;-82
2022/09/05 13:21:39;;;;;;;5.75;2.20;;;24.50;99.90;;;;;;4873374;29;20052;-81
2022/09/05 13:24:16;;;;;;;3.25;1.95;;;24.60;99.90;;;;;;4894603;29;20057;-83
2022/09/05 13:26:54;;;;;;;7.78;2.60;;;24.40;99.90;;;;;;4879388;29;20056;-82
2022/09/05 13:29:34;;;;;;;3.03;1.80;;;24.40;99.90;;;;;;4895298;29;20059;-82
2022/09/05 13:32:31;;;;;;;1.73;1.63;;;24.50;99.90;;;;;;4845068;29;20045;-82
2022/09/05 13:35:28;;;;;;;5.10;2.47;;;24.60;99.90;;;;;;4877376;29;20052;-82
2022/09/05 13:38:26;;;;;;;2.03;1.83;;;24.90;99.90;;;;;;4843333;29;20045;-82
2022/09/05 13:41:26;;;;;;;8.82;2.83;;;24.90;99.90;;;;;;4863247;29;20048;-82
2022/09/05 13:43:58;;;;;;;1.60;1.50;;;24.80;99.90;;;;;;4876982;29;20052;-82
2022/09/05 13:46:55;;;;;;;2.53;1.45;;;24.80;99.90;;;;;;4863775;29;20045;-82
2022/09/05 13:49:36;;;;;;;1.77;1.67;;;24.80;99.90;;;;;;4843987;29;20053;-82
2022/09/05 13:52:24;;;;;;;1.70;1.45;;;25.00;99.90;;;;;;4829783;29;20055;-83
2022/09/05 13:55:09;;;;;;;1.80;1.55;;;25.10;99.90;;;;;;4895410;29;20075;-82
2022/09/05 13:57:43;;;;;;;1.95;1.67;;;25.10;99.90;;;;;;4882230;29;20494;-82
2022/09/05 14:00:12;;;;;;;3.08;1.92;;;25.10;99.90;;;;;;4881152;29;20048;-82
2022/09/05 14:03:27;;;;;;;1.52;1.42;;;25.10;99.90;;;;;;4882037;29;20512;-82
2022/09/05 14:06:07;;;;;;;;;;;25.10;99.90;;;;;;4865669;29;20498;-82
2022/09/05 14:09:17;;;;;;;2.00;1.90;;;25.10;99.90;;;;;;4876369;29;19931;-82
2022/09/05 14:12:22;;;;;;;2.00;1.47;;;25.20;99.90;;;;;;4831935;29;20064;-82
2022/09/05 14:15:12;;;;;;;1.88;1.75;;;25.10;99.90;;;;;;4844876;29;20423;-83
2022/09/05 14:18:16;;;;;;;5.57;1.35;;;25.10;99.90;;;;;;4829224;29;20049;-82
2022/09/05 14:23:52;;;;;;;2.25;2.08;;;25.10;99.90;;;;;;4858131;29;20057;-82
2022/09/05 14:27:05;;;;;;;1.50;1.40;;;24.90;99.90;;;;;;4844921;29;20055;-83
2022/09/05 14:29:37;;;;;;;2.90;1.95;;;25.00;99.90;;;;;;4859138;29;20087;-83
2022/09/05 14:32:14;;;;;;;5.55;1.80;;;25.00;99.90;;;;;;4844768;29;20045;-84
2022/09/05 14:35:11;;;;;;;2.50;1.90;;;24.90;99.90;;;;;;4847333;29;20052;-82
2022/09/05 14:38:19;;;;;;;2.58;2.38;;;24.70;99.90;;;;;;4841871;29;20538;-82
2022/09/05 14:41:28;;;;;;;4.13;2.30;;;24.70;99.90;;;;;;4837921;29;20053;-83
2022/09/05 14:44:08;;;;;;;2.25;1.60;;;24.80;99.90;;;;;;4875686;29;20041;-83
2022/09/05 14:47:10;;;;;;;2.80;2.40;;;24.90;99.90;;;;;;4844416;29;20067;-83
2022/09/05 14:50:06;;;;;;;2.92;1.63;;;24.90;99.90;;;;;;4845672;29;20226;-82
2022/09/05 14:52:34;;;;;;;2.53;1.77;;;24.90;99.90;;;;;;4842846;29;20063;-83
2022/09/05 14:55:16;;;;;;;5.97;1.75;;;25.00;99.90;;;;;;4897148;29;20048;-82
2022/09/05 14:57:46;;;;;;;1.20;1.20;;;25.00;99.90;;;;;;4881169;29;20044;-82
2022/09/05 15:00:52;;;;;;;2.03;1.93;;;25.00;99.90;;;;;;4896115;29;20421;-82